createdAt,value
2022-08-11T00:02:03.257Z,21.70
2022-08-11T00:04:39.535Z,21.70
2022-08-11T00:07:10.321Z,21.60
2022-08-11T00:09:40.797Z,21.60
2022-08-11T00:12:18.508Z,21.40
2022-08-11T00:15:01.223Z,21.40
2022-08-11T00:17:34.874Z,21.40
2022-08-11T00:20:16.747Z,21.30
2022-08-11T00:22:48.210Z,21.10
2022-08-11T00:25:22.149Z,20.90
2022-08-11T00:27:50.038Z,20.80
2022-08-11T00:30:18.207Z,20.60
2022-08-11T00:32:59.065Z,20.40
2022-08-11T00:35:56.229Z,20.20
2022-08-11T00:38:31.955Z,20.10
2022-08-11T00:42:07.028Z,19.90
2022-08-11T00:45:10.721Z,19.80
2022-08-11T00:48:27.894Z,19.70
2022-08-11T00:52:04.822Z,19.60
2022-08-11T00:54:39.602Z,19.60
2022-08-11T00:57:56.361Z,19.50
2022-08-11T01:00:35.185Z,19.40
2022-08-11T01:03:18.769Z,19.30
2022-08-11T01:06:50.470Z,19.20
2022-08-11T01:10:32.686Z,19.10
2022-08-11T01:13:30.374Z,19.00
2022-08-11T01:16:49.796Z,18.80
2022-08-11T01:20:46.775Z,18.70
2022-08-11T01:24:18.302Z,18.60
2022-08-11T01:27:21.932Z,18.50
2022-08-11T01:30:57.383Z,18.40
2022-08-11T01:34:23.911Z,18.40
2022-08-11T01:37:26.272Z,18.40
2022-08-11T01:40:40.897Z,18.40
2022-08-11T01:44:12.586Z,18.50
2022-08-11T01:47:52.625Z,18.50
2022-08-11T01:51:19.093Z,18.40
2022-08-11T01:54:12.741Z,18.30
2022-08-11T01:57:26.159Z,18.20
2022-08-11T02:00:21.119Z,18.20
2022-08-11T02:04:07.876Z,18.20
2022-08-11T02:07:17.178Z,18.10
2022-08-11T02:10:38.604Z,18.20
2022-08-11T02:13:52.272Z,18.10
2022-08-11T02:16:45.850Z,18.10
2022-08-11T02:19:55.378Z,18.10
2022-08-11T02:23:13.544Z,18.00
2022-08-11T02:26:21.948Z,18.10
2022-08-11T02:29:33.885Z,18.20
2022-08-11T02:33:00.276Z,18.20
2022-08-11T02:35:51.724Z,18.20
2022-08-11T02:39:18.640Z,18.20
2022-08-11T02:42:32.928Z,18.10
2022-08-11T02:45:12.607Z,18.10
2022-08-11T02:48:35.017Z,18.10
2022-08-11T02:52:00.730Z,18.00
2022-08-11T02:55:48.841Z,18.00
2022-08-11T02:58:36.891Z,18.00
2022-08-11T03:01:28.611Z,17.90
2022-08-11T03:04:11.229Z,17.90
2022-08-11T03:07:29.367Z,17.80
2022-08-11T03:10:41.485Z,17.80
2022-08-11T03:13:57.394Z,17.70
2022-08-11T03:18:25.130Z,17.70
2022-08-11T03:22:01.792Z,17.50
2022-08-11T03:25:34.820Z,17.40
2022-08-11T03:28:44.433Z,17.30
2022-08-11T03:32:04.640Z,17.30
2022-08-11T03:34:38.040Z,17.30
2022-08-11T03:38:11.336Z,17.20
2022-08-11T03:42:02.060Z,17.20
2022-08-11T03:45:11.223Z,17.10
2022-08-11T03:48:29.626Z,17.00
2022-08-11T03:51:52.179Z,17.00
2022-08-11T03:55:02.238Z,17.00
2022-08-11T03:58:13.956Z,17.00
2022-08-11T04:01:25.964Z,17.00
2022-08-11T04:04:47.713Z,17.10
2022-08-11T04:08:04.733Z,17.10
2022-08-11T04:11:15.126Z,17.30
2022-08-11T04:15:00.020Z,17.30
2022-08-11T04:17:57.943Z,17.20
2022-08-11T04:20:58.526Z,17.10
2022-08-11T04:24:50.431Z,17.00
2022-08-11T04:28:31.551Z,16.90
2022-08-11T04:32:04.882Z,16.80
2022-08-11T04:35:30.694Z,16.70
2022-08-11T04:38:46.612Z,16.60
2022-08-11T04:42:15.217Z,16.60
2022-08-11T04:45:34.737Z,16.60
2022-08-11T04:49:33.148Z,16.60
2022-08-11T04:53:21.524Z,16.60
2022-08-11T04:56:43.220Z,16.80
2022-08-11T04:59:59.180Z,17.10
2022-08-11T05:03:30.298Z,17.30
2022-08-11T05:06:51.446Z,17.50
2022-08-11T05:10:23.307Z,18.00
2022-08-11T05:13:22.783Z,18.30
2022-08-11T05:16:27.488Z,18.50
2022-08-11T05:19:16.300Z,18.60
2022-08-11T05:22:16.028Z,18.60
2022-08-11T05:25:11.067Z,18.70
2022-08-11T05:28:30.788Z,18.80
2022-08-11T05:31:32.727Z,18.90
2022-08-11T05:34:56.954Z,19.00
2022-08-11T05:37:30.242Z,19.10
2022-08-11T05:40:33.197Z,19.20
2022-08-11T05:43:31.653Z,19.20
2022-08-11T05:46:25.171Z,19.20
2022-08-11T05:49:13.873Z,19.30
2022-08-11T05:52:05.768Z,19.50
2022-08-11T05:55:06.979Z,19.70
2022-08-11T05:57:51.198Z,20.00
2022-08-11T06:00:21.008Z,20.70
2022-08-11T06:03:00.954Z,21.80
2022-08-11T06:05:44.156Z,23.20
2022-08-11T06:08:15.220Z,24.20
2022-08-11T06:10:46.847Z,25.00
2022-08-11T06:13:18.678Z,25.60
2022-08-11T06:15:53.017Z,26.10
2022-08-11T06:18:21.773Z,25.90
2022-08-11T06:20:58.736Z,25.90
2022-08-11T06:23:36.254Z,26.50
2022-08-11T06:26:12.851Z,26.90
2022-08-11T06:28:47.032Z,27.50
2022-08-11T06:31:24.355Z,27.50
2022-08-11T06:34:27.288Z,27.90
2022-08-11T06:37:25.360Z,27.50
2022-08-11T06:41:08.475Z,27.70
2022-08-11T06:44:14.197Z,27.80
2022-08-11T06:47:02.342Z,27.70
2022-08-11T06:50:02.504Z,27.20
2022-08-11T06:52:37.598Z,27.80
2022-08-11T06:55:57.479Z,27.80
2022-08-11T06:59:01.066Z,28.10
2022-08-11T07:02:21.330Z,28.80
2022-08-11T07:05:10.659Z,29.20
2022-08-11T07:08:51.168Z,28.80
2022-08-11T07:12:44.452Z,29.00
2022-08-11T07:16:13.310Z,28.50
2022-08-11T07:18:53.197Z,29.50
2022-08-11T07:22:02.291Z,30.60
2022-08-11T07:25:30.505Z,30.50
2022-08-11T07:28:35.920Z,30.50
2022-08-11T07:31:14.024Z,30.50
2022-08-11T07:34:07.092Z,30.20
2022-08-11T07:36:59.182Z,30.20
2022-08-11T07:39:38.644Z,30.20
2022-08-11T07:42:17.469Z,30.60
2022-08-11T07:45:11.782Z,31.10
2022-08-11T07:48:01.211Z,31.30
2022-08-11T07:51:10.042Z,31.30
2022-08-11T07:53:57.812Z,32.00
2022-08-11T07:56:39.602Z,31.90
2022-08-11T07:59:58.691Z,32.10
2022-08-11T08:02:54.202Z,31.90
2022-08-11T08:05:41.505Z,32.40
2022-08-11T08:08:30.606Z,32.80
2022-08-11T08:11:20.273Z,32.60
2022-08-11T08:14:10.370Z,32.30
2022-08-11T08:16:58.591Z,32.40
2022-08-11T08:19:27.715Z,32.50
2022-08-11T08:22:38.487Z,32.60
2022-08-11T08:24:47.068Z,32.60
2022-08-11T08:27:17.471Z,32.30
2022-08-11T08:30:08.306Z,32.10
2022-08-11T08:32:45.279Z,32.20
2022-08-11T08:35:13.709Z,32.30
2022-08-11T08:37:46.731Z,32.30
2022-08-11T08:40:22.315Z,31.90
2022-08-11T08:43:18.816Z,32.50
2022-08-11T08:45:47.446Z,32.60
2022-08-11T08:48:21.009Z,32.30
2022-08-11T08:51:33.611Z,32.70
2022-08-11T08:54:40.007Z,32.30
2022-08-11T08:57:14.118Z,32.30
2022-08-11T08:59:51.437Z,32.50
2022-08-11T09:02:34.518Z,32.70
2022-08-11T09:05:10.483Z,32.70
2022-08-11T09:07:41.871Z,32.80
2022-08-11T09:10:20.422Z,32.80
2022-08-11T09:12:50.980Z,32.90
2022-08-11T09:15:23.800Z,32.90
2022-08-11T09:18:11.771Z,33.10
2022-08-11T09:20:43.936Z,33.10
2022-08-11T09:26:42.687Z,33.10
2022-08-11T09:29:12.609Z,33.40
2022-08-11T09:31:58.204Z,33.70
2022-08-11T09:34:29.173Z,32.80
2022-08-11T09:37:38.449Z,32.10
2022-08-11T09:40:32.455Z,32.40
2022-08-11T09:43:32.627Z,32.60
2022-08-11T09:46:16.000Z,32.80
2022-08-11T09:48:48.322Z,33.10
2022-08-11T09:51:18.226Z,33.60
2022-08-11T09:54:02.683Z,33.50
2022-08-11T09:56:51.998Z,32.60
2022-08-11T09:59:24.129Z,32.60
2022-08-11T10:02:06.777Z,32.40
2022-08-11T10:04:46.955Z,31.80
2022-08-11T10:07:20.098Z,31.30
2022-08-11T10:10:03.001Z,31.20
2022-08-11T10:12:42.525Z,30.80
2022-08-11T10:15:38.347Z,30.50
2022-08-11T10:18:42.422Z,30.50
2022-08-11T10:22:06.436Z,30.50
2022-08-11T10:28:17.026Z,30.10
2022-08-11T10:31:13.534Z,30.30
2022-08-11T10:34:00.730Z,30.40
2022-08-11T10:36:51.215Z,30.40
2022-08-11T10:39:22.981Z,30.50
2022-08-11T10:42:14.465Z,30.30
2022-08-11T10:44:58.185Z,30.30
2022-08-11T10:47:38.380Z,30.30
2022-08-11T10:50:33.746Z,30.00
2022-08-11T10:53:22.765Z,30.00
2022-08-11T10:56:10.031Z,30.10
2022-08-11T10:58:49.894Z,30.10
2022-08-11T11:01:44.139Z,30.00
2022-08-11T11:04:24.362Z,29.80
2022-08-11T11:07:20.697Z,29.90
2022-08-11T11:10:02.232Z,29.90
2022-08-11T11:13:09.306Z,29.90
2022-08-11T11:15:59.937Z,29.90
2022-08-11T11:18:37.526Z,30.00
2022-08-11T11:21:18.929Z,30.10
2022-08-11T11:24:11.075Z,30.20
2022-08-11T11:26:50.554Z,30.40
2022-08-11T11:30:08.500Z,30.20
2022-08-11T11:32:35.919Z,30.20
2022-08-11T11:35:36.811Z,30.20
2022-08-11T11:38:14.144Z,30.30
2022-08-11T11:40:43.047Z,30.30
2022-08-11T11:43:12.305Z,30.30
2022-08-11T11:45:43.624Z,30.40
2022-08-11T11:48:13.075Z,30.20
2022-08-11T11:50:41.750Z,30.10
2022-08-11T11:53:13.059Z,30.20
2022-08-11T11:55:43.090Z,30.10
2022-08-11T11:58:30.763Z,30.10
2022-08-11T12:01:19.935Z,30.00
2022-08-11T12:03:53.995Z,30.10
2022-08-11T12:06:26.012Z,30.20
2022-08-11T12:08:58.782Z,30.30
2022-08-11T12:11:50.072Z,30.50
2022-08-11T12:14:21.954Z,30.40
2022-08-11T12:16:51.948Z,30.50
2022-08-11T12:19:29.372Z,30.40
2022-08-11T12:22:22.625Z,30.50
2022-08-11T12:25:09.087Z,30.40
2022-08-11T12:27:39.001Z,30.40
2022-08-11T12:30:11.195Z,30.30
2022-08-11T12:32:43.598Z,30.10
2022-08-11T12:35:15.383Z,30.00
2022-08-11T12:38:03.734Z,30.20
2022-08-11T12:41:15.834Z,30.30
2022-08-11T12:44:07.946Z,30.30
2022-08-11T12:46:44.677Z,30.30
2022-08-11T12:49:45.560Z,30.50
2022-08-11T12:52:27.415Z,30.40
2022-08-11T12:55:39.354Z,30.40
2022-08-11T12:58:18.678Z,30.60
2022-08-11T13:01:06.604Z,30.70
2022-08-11T13:03:59.613Z,30.70
2022-08-11T13:06:28.519Z,30.60
2022-08-11T13:09:01.515Z,30.60
2022-08-11T13:11:56.577Z,30.60
2022-08-11T13:14:32.995Z,30.30
2022-08-11T13:17:21.908Z,30.40
2022-08-11T13:20:14.574Z,30.50
2022-08-11T13:22:47.234Z,30.60
2022-08-11T13:25:21.049Z,30.80
2022-08-11T13:30:52.301Z,30.90
2022-08-11T13:33:21.064Z,31.00
2022-08-11T13:35:55.937Z,31.00
2022-08-11T13:38:26.723Z,30.80
2022-08-11T13:40:57.150Z,30.80
2022-08-11T13:43:26.082Z,30.90
2022-08-11T13:46:15.573Z,30.90
2022-08-11T13:48:44.144Z,30.90
2022-08-11T13:51:34.528Z,30.80
2022-08-11T13:54:23.243Z,30.80
2022-08-11T13:57:00.474Z,30.80
2022-08-11T13:59:31.380Z,30.90
2022-08-11T14:02:22.038Z,30.90
2022-08-11T14:05:17.525Z,31.00
2022-08-11T14:08:10.669Z,31.00
2022-08-11T14:12:21.298Z,31.10
2022-08-11T14:14:33.469Z,31.10
2022-08-11T14:17:09.095Z,31.00
2022-08-11T14:19:53.694Z,31.10
2022-08-11T14:22:22.337Z,31.00
2022-08-11T14:24:50.133Z,30.90
2022-08-11T14:28:25.750Z,31.00
2022-08-11T14:30:37.536Z,31.00
2022-08-11T14:33:16.970Z,31.00
2022-08-11T14:35:46.693Z,30.90
2022-08-11T14:38:20.097Z,31.00
2022-08-11T14:41:08.138Z,30.90
2022-08-11T14:44:04.715Z,30.90
2022-08-11T14:47:03.001Z,30.90
2022-08-11T14:49:38.129Z,31.00
2022-08-11T14:52:27.525Z,31.20
2022-08-11T14:55:14.553Z,31.20
2022-08-11T14:57:55.392Z,31.10
2022-08-11T15:00:34.835Z,31.00
2022-08-11T15:03:11.396Z,31.00
2022-08-11T15:05:58.372Z,31.10
2022-08-11T15:08:54.825Z,31.00
2022-08-11T15:11:48.614Z,30.90
2022-08-11T15:14:37.794Z,30.90
2022-08-11T15:17:08.983Z,31.00
2022-08-11T15:20:01.104Z,31.00
2022-08-11T15:22:48.076Z,31.10
2022-08-11T15:25:16.534Z,31.30
2022-08-11T15:28:11.214Z,31.40
2022-08-11T15:30:58.696Z,31.40
2022-08-11T15:33:50.357Z,31.40
2022-08-11T15:36:39.060Z,31.50
2022-08-11T15:40:31.648Z,31.60
2022-08-11T15:44:07.626Z,31.80
2022-08-11T15:46:49.388Z,31.80
2022-08-11T15:50:12.039Z,31.90
2022-08-11T15:52:46.350Z,31.90
2022-08-11T15:55:17.505Z,31.70
2022-08-11T15:58:10.225Z,31.60
2022-08-11T16:01:04.212Z,31.70
2022-08-11T16:04:13.445Z,31.50
2022-08-11T16:07:17.215Z,31.50
2022-08-11T16:10:21.773Z,31.80
2022-08-11T16:13:07.260Z,31.70
2022-08-11T16:16:09.613Z,31.60
2022-08-11T16:18:57.099Z,31.60
2022-08-11T16:21:35.931Z,31.50
2022-08-11T16:27:02.260Z,31.10
2022-08-11T16:27:13.420Z,30.70
2022-08-11T16:29:51.993Z,30.50
2022-08-11T16:32:25.883Z,30.40
2022-08-11T16:35:24.897Z,30.40
2022-08-11T16:38:15.747Z,30.30
2022-08-11T16:40:47.025Z,30.30
2022-08-11T16:43:42.980Z,30.20
2022-08-11T16:46:37.370Z,30.20
2022-08-11T16:49:18.766Z,30.20
2022-08-11T16:51:47.520Z,30.20
2022-08-11T16:54:15.692Z,30.20
2022-08-11T16:56:54.278Z,30.20
2022-08-11T16:59:33.955Z,30.20
2022-08-11T17:02:38.687Z,30.10
2022-08-11T17:05:38.485Z,30.10
2022-08-11T17:09:09.270Z,30.10
2022-08-11T17:12:16.868Z,30.10
2022-08-11T17:15:03.623Z,30.10
2022-08-11T17:17:39.761Z,30.00
2022-08-11T17:20:40.458Z,30.00
2022-08-11T17:23:25.172Z,29.90
2022-08-11T17:25:59.487Z,29.80
2022-08-11T17:28:42.781Z,29.80
2022-08-11T17:31:33.222Z,29.80
2022-08-11T17:34:23.782Z,29.80
2022-08-11T17:36:55.661Z,29.60
2022-08-11T17:39:31.956Z,29.60
2022-08-11T17:42:20.719Z,29.40
2022-08-11T17:45:09.654Z,29.40
2022-08-11T17:47:57.640Z,29.40
2022-08-11T17:50:27.646Z,29.50
2022-08-11T17:53:15.773Z,29.50
2022-08-11T17:56:03.945Z,29.40
2022-08-11T17:58:53.646Z,29.30
2022-08-11T18:01:24.725Z,29.20
2022-08-11T18:03:58.467Z,29.10
2022-08-11T18:06:33.815Z,29.10
2022-08-11T18:09:34.746Z,29.00
2022-08-11T18:12:26.753Z,29.00
2022-08-11T18:15:15.905Z,28.80
2022-08-11T18:18:03.539Z,28.60
2022-08-11T18:20:52.776Z,28.70
2022-08-11T18:23:46.768Z,28.50
2022-08-11T18:26:45.010Z,28.40
2022-08-11T18:29:42.110Z,28.20
2022-08-11T18:32:49.161Z,28.10
2022-08-11T18:35:39.158Z,27.80
2022-08-11T18:38:34.768Z,27.70
2022-08-11T18:41:25.455Z,27.60
2022-08-11T18:44:18.533Z,27.50
2022-08-11T18:47:11.916Z,27.30
2022-08-11T18:50:04.987Z,27.10
2022-08-11T18:52:55.284Z,27.00
2022-08-11T18:55:42.950Z,26.80
2022-08-11T18:58:36.108Z,26.70
2022-08-11T19:01:28.063Z,26.60
2022-08-11T19:04:19.268Z,26.40
2022-08-11T19:07:16.434Z,26.30
2022-08-11T19:10:10.513Z,26.20
2022-08-11T19:13:03.917Z,26.10
2022-08-11T19:15:52.079Z,26.10
2022-08-11T19:18:43.761Z,26.20
2022-08-11T19:21:34.041Z,26.10
2022-08-11T19:24:25.322Z,26.00
2022-08-11T19:27:13.311Z,25.90
2022-08-11T19:30:13.481Z,25.80
2022-08-11T19:33:02.010Z,25.80
2022-08-11T19:35:50.148Z,25.70
2022-08-11T19:38:38.833Z,25.70
2022-08-11T19:41:52.178Z,25.70
2022-08-11T19:44:35.906Z,25.70
2022-08-11T19:47:21.977Z,25.70
2022-08-11T19:50:10.848Z,25.60
2022-08-11T19:53:00.195Z,25.40
2022-08-11T19:55:49.690Z,25.40
2022-08-11T19:58:37.383Z,25.40
2022-08-11T20:01:25.193Z,25.40
2022-08-11T20:04:11.120Z,25.30
2022-08-11T20:06:58.307Z,25.30
2022-08-11T20:10:04.868Z,25.20
2022-08-11T20:12:56.341Z,25.10
2022-08-11T20:15:45.473Z,25.00
2022-08-11T20:18:36.114Z,25.00
2022-08-11T20:21:31.134Z,25.00
2022-08-11T20:24:21.930Z,25.00
2022-08-11T20:27:19.030Z,25.00
2022-08-11T20:30:15.502Z,24.90
2022-08-11T20:33:03.545Z,24.90
2022-08-11T20:35:54.651Z,24.90
2022-08-11T20:38:48.503Z,24.70
2022-08-11T20:41:49.220Z,24.70
2022-08-11T20:44:48.152Z,24.80
2022-08-11T20:47:59.299Z,24.80
2022-08-11T20:50:47.873Z,24.80
2022-08-11T20:53:40.597Z,24.90
2022-08-11T20:56:30.071Z,24.80
2022-08-11T20:59:22.105Z,24.70
2022-08-11T21:02:11.216Z,24.60
2022-08-11T21:05:00.304Z,24.60
2022-08-11T21:07:58.747Z,24.60
2022-08-11T21:10:56.174Z,24.60
2022-08-11T21:13:56.270Z,24.60
2022-08-11T21:16:54.211Z,24.50
2022-08-11T21:20:00.246Z,24.40
2022-08-11T21:23:23.757Z,24.40
2022-08-11T21:26:25.015Z,24.30
2022-08-11T21:29:18.253Z,24.20
2022-08-11T21:32:08.188Z,24.10
2022-08-11T21:34:56.855Z,24.00
2022-08-11T21:37:44.592Z,23.90
2022-08-11T21:40:40.966Z,24.00
2022-08-11T21:43:32.050Z,24.00
2022-08-11T21:46:21.342Z,23.90
2022-08-11T21:49:10.145Z,23.90
2022-08-11T21:51:59.652Z,23.80
2022-08-11T21:54:46.808Z,23.70
2022-08-11T21:57:36.262Z,23.60
2022-08-11T22:00:34.706Z,23.50
2022-08-11T22:03:23.301Z,23.40
2022-08-11T22:06:13.921Z,23.40
2022-08-11T22:09:02.469Z,23.30
2022-08-11T22:11:48.945Z,23.40
2022-08-11T22:14:56.146Z,23.40
2022-08-11T22:17:42.701Z,23.30
2022-08-11T22:20:32.406Z,23.30
2022-08-11T22:23:20.920Z,23.20
2022-08-11T22:26:11.781Z,23.10
2022-08-11T22:28:58.642Z,23.10
2022-08-11T22:31:46.038Z,23.00
2022-08-11T22:34:33.366Z,23.00
2022-08-11T22:37:28.474Z,22.90
2022-08-11T22:40:16.913Z,22.80
2022-08-11T22:43:03.608Z,22.70
2022-08-11T22:45:50.039Z,22.70
2022-08-11T22:48:39.653Z,22.60
2022-08-11T22:51:26.450Z,22.60
2022-08-11T22:54:15.456Z,22.50
2022-08-11T22:57:02.372Z,22.50
2022-08-11T22:59:49.215Z,22.40
2022-08-11T23:02:35.669Z,22.40
2022-08-11T23:05:25.089Z,22.30
2022-08-11T23:08:12.702Z,22.30
2022-08-11T23:11:01.330Z,22.30
2022-08-11T23:13:52.217Z,22.30
2022-08-11T23:16:40.423Z,22.30
2022-08-11T23:20:07.310Z,22.30
2022-08-11T23:22:49.086Z,22.50
2022-08-11T23:25:36.769Z,22.40
2022-08-11T23:28:28.034Z,22.40
2022-08-11T23:31:18.449Z,22.20
2022-08-11T23:35:04.162Z,22.30
2022-08-11T23:37:23.257Z,22.50
2022-08-11T23:40:11.847Z,22.50
2022-08-11T23:42:59.541Z,22.50
2022-08-11T23:45:46.462Z,22.50
2022-08-11T23:48:37.423Z,22.40
2022-08-11T23:51:25.477Z,22.30
2022-08-11T23:54:32.669Z,22.20
2022-08-11T23:57:22.559Z,22.00
